Time;durP1;ratioP1;P1;durP2;ratioP2;P2;SDS_P1;SDS_P2;PMS_P1;PMS_P2;Temp;Humidity;BMP_temperature;BMP_pressure;BME280_temperature;BME280_humidity;BME280_pressure;Samples;Min_cycle;Max_cycle;Signal;HPM_P1;HPM_P2
2021/03/08 00:00:51;;;;;;;6.50;1.97;;;2.00;1.00;;;;;;5137368;27;20178;-66
2021/03/08 00:03:17;;;;;;;13.80;3.17;;;2.10;1.00;;;;;;5137992;27;20191;-66
2021/03/08 00:05:44;;;;;;;10.75;2.55;;;2.00;1.00;;;;;;5138316;27;20216;-65
2021/03/08 00:08:10;;;;;;;1.65;1.48;;;1.90;1.00;;;;;;5137955;27;20219;-67
2021/03/08 00:10:36;;;;;;;2.08;1.70;;;1.80;1.00;;;;;;5138383;27;20185;-64
2021/03/08 00:13:02;;;;;;;6.80;2.40;;;1.80;1.00;;;;;;5136992;27;20171;-64
2021/03/08 00:15:27;;;;;;;15.23;2.20;;;1.80;1.00;;;;;;5137578;27;20667;-66
2021/03/08 00:17:53;;;;;;;3.30;1.13;;;1.70;99.90;;;;;;5137195;27;20182;-66
2021/03/08 00:20:21;;;;;;;4.90;1.33;;;1.70;99.90;;;;;;5137460;27;20736;-66
2021/03/08 00:22:47;;;;;;;10.77;2.13;;;1.70;99.90;;;;;;5137551;27;20792;-63
2021/03/08 00:25:21;;;;;;;7.23;1.80;;;1.70;99.90;;;;;;5136335;27;20618;-62
2021/03/08 00:27:47;;;;;;;9.43;1.90;;;1.70;1.00;;;;;;5136856;27;20456;-63
2021/03/08 00:30:14;;;;;;;4.50;1.80;;;1.70;1.00;;;;;;5137554;27;20170;-66
2021/03/08 00:32:40;;;;;;;3.80;2.08;;;1.60;90.00;;;;;;5137060;27;20420;-64
2021/03/08 00:35:07;;;;;;;4.50;1.93;;;1.60;99.90;;;;;;5136394;27;20190;-64
2021/03/08 00:37:33;;;;;;;3.85;1.77;;;1.60;1.00;;;;;;5136792;27;20430;-64
2021/03/08 00:40:00;;;;;;;2.70;1.30;;;1.60;1.00;;;;;;5136912;27;20178;-66
2021/03/08 00:42:26;;;;;;;5.05;1.75;;;1.40;1.00;;;;;;5137319;27;20424;-63
2021/03/08 00:44:52;;;;;;;3.83;1.70;;;1.50;99.90;;;;;;5137148;28;20634;-63
2021/03/08 00:47:19;;;;;;;6.88;1.63;;;1.60;1.00;;;;;;5136890;27;20311;-64
2021/03/08 00:49:44;;;;;;;3.80;1.80;;;1.60;1.00;;;;;;5136977;27;20166;-63
2021/03/08 00:52:10;;;;;;;5.50;1.10;;;1.50;67.40;;;;;;5137050;28;20167;-64
2021/03/08 00:54:36;;;;;;;5.70;1.43;;;1.40;1.00;;;;;;5137164;28;20244;-64
2021/03/08 00:57:01;;;;;;;2.93;1.90;;;1.30;1.00;;;;;;5137351;28;20202;-64
2021/03/08 00:59:27;;;;;;;4.60;1.53;;;1.30;9.20;;;;;;5137601;28;20786;-64
2021/03/08 01:01:52;;;;;;;36.63;21.27;;;1.30;47.50;;;;;;5136789;28;20265;-64
2021/03/08 01:04:18;;;;;;;8.47;2.47;;;1.50;54.10;;;;;;5136482;28;20607;-63
2021/03/08 01:06:43;;;;;;;2.03;1.63;;;1.50;1.00;;;;;;5136046;28;20206;-65
2021/03/08 01:09:09;;;;;;;4.43;1.37;;;1.40;99.90;;;;;;5136408;28;20593;-63
2021/03/08 01:11:35;;;;;;;6.70;2.50;;;1.50;99.90;;;;;;5136643;28;20505;-65
2021/03/08 01:14:01;;;;;;;5.30;1.67;;;1.40;1.00;;;;;;5136342;27;20179;-64
2021/03/08 01:16:27;;;;;;;4.63;1.60;;;1.50;1.00;;;;;;5136026;27;20187;-64
2021/03/08 01:18:53;;;;;;;2.47;1.53;;;1.50;1.00;;;;;;5136321;28;20420;-65
2021/03/08 01:21:19;;;;;;;5.47;2.40;;;1.30;1.00;;;;;;5136461;28;20171;-62
2021/03/08 01:23:44;;;;;;;3.75;1.95;;;1.40;1.00;;;;;;5137159;27;20174;-62
2021/03/08 01:26:10;;;;;;;5.67;1.37;;;1.70;1.00;;;;;;5140253;27;20185;-62
2021/03/08 01:28:35;;;;;;;3.33;1.57;;;1.80;99.90;;;;;;5140251;27;20198;-63
2021/03/08 01:31:01;;;;;;;10.73;2.03;;;1.90;1.00;;;;;;5139395;27;20171;-61
2021/03/08 01:33:26;;;;;;;10.73;2.03;;;1.70;1.00;;;;;;5139917;27;20182;-62
2021/03/08 01:35:52;;;;;;;8.00;1.53;;;1.20;1.00;;;;;;5141090;27;20471;-62
2021/03/08 01:38:18;;;;;;;3.23;1.90;;;1.00;99.90;;;;;;5140450;27;20257;-62
2021/03/08 01:40:44;;;;;;;3.20;1.50;;;1.00;1.00;;;;;;5139998;27;20182;-64
2021/03/08 01:43:10;;;;;;;7.43;1.87;;;1.10;1.00;;;;;;5139282;27;20175;-64
2021/03/08 01:45:37;;;;;;;5.97;1.10;;;1.40;99.90;;;;;;5139703;27;20424;-64
2021/03/08 01:48:02;;;;;;;2.53;1.33;;;1.40;1.00;;;;;;5139219;27;20301;-64
2021/03/08 01:50:33;;;;;;;3.93;1.50;;;1.10;99.90;;;;;;5139492;27;20653;-64
2021/03/08 01:52:59;;;;;;;5.88;1.85;;;1.10;99.90;;;;;;5139289;27;20242;-64
2021/03/08 01:55:26;;;;;;;3.85;1.20;;;1.10;99.90;;;;;;5139581;27;20270;-69
2021/03/08 01:57:52;;;;;;;4.07;1.42;;;1.10;99.90;;;;;;5139783;27;20495;-62
2021/03/08 02:00:19;;;;;;;6.40;1.55;;;0.90;12.20;;;;;;5139396;27;20182;-62
2021/03/08 02:02:45;;;;;;;2.70;1.60;;;0.80;99.90;;;;;;5140672;27;20179;-63
2021/03/08 02:05:14;;;;;;;2.72;1.10;;;0.70;1.00;;;;;;5138853;27;20240;-62
2021/03/08 02:07:43;;;;;;;2.55;1.33;;;0.90;1.00;;;;;;5139188;27;20285;-63
2021/03/08 02:10:14;;;;;;;1.98;1.45;;;1.20;43.10;;;;;;5139184;27;20190;-63
2021/03/08 02:12:49;;;;;;;2.75;1.40;;;1.10;99.90;;;;;;5139246;27;20187;-64
2021/03/08 02:15:39;;;;;;;3.55;1.40;;;0.90;99.90;;;;;;5138850;27;20615;-64
2021/03/08 02:18:17;;;;;;;2.83;1.50;;;0.70;1.00;;;;;;5139189;27;20217;-62
2021/03/08 02:21:20;;;;;;;1.77;1.23;;;0.70;99.90;;;;;;5139524;27;20235;-62
2021/03/08 02:24:29;;;;;;;3.10;1.23;;;0.50;1.00;;;;;;5139096;27;20182;-62
2021/03/08 02:27:10;;;;;;;4.25;1.52;;;0.60;1.00;;;;;;5137436;27;20222;-65
2021/03/08 02:30:10;;;;;;;2.35;1.20;;;0.40;1.00;;;;;;5139548;27;20190;-64
2021/03/08 02:32:43;;;;;;;5.15;1.00;;;0.50;1.00;;;;;;5139772;27;20293;-62
2021/03/08 02:35:17;;;;;;;2.03;1.10;;;0.50;1.00;;;;;;5138639;27;20181;-63
2021/03/08 02:38:00;;;;;;;2.28;1.55;;;0.30;99.90;;;;;;5139822;27;20179;-63
2021/03/08 02:41:06;;;;;;;2.88;1.45;;;0.50;99.90;;;;;;5134246;27;20193;-64
2021/03/08 02:43:40;;;;;;;5.65;1.08;;;0.40;99.90;;;;;;5138917;27;20194;-65
2021/03/08 02:46:10;;;;;;;5.43;1.25;;;0.30;99.90;;;;;;5139485;27;20185;-66
2021/03/08 02:48:38;;;;;;;3.40;1.17;;;0.30;1.00;;;;;;5139107;27;20207;-62
2021/03/08 02:51:05;;;;;;;7.80;1.65;;;0.30;1.00;;;;;;5123044;27;20179;-63
2021/03/08 02:53:36;;;;;;;3.85;1.27;;;0.30;90.60;;;;;;5119071;28;20175;-61
2021/03/08 02:56:07;;;;;;;5.07;1.20;;;0.40;99.90;;;;;;5127583;27;20187;-62
2021/03/08 02:58:34;;;;;;;3.85;1.35;;;0.40;30.30;;;;;;5139669;27;20188;-62
2021/03/08 03:01:02;;;;;;;2.95;1.20;;;0.50;16.80;;;;;;5139330;27;20316;-62
2021/03/08 03:03:31;;;;;;;9.48;1.20;;;0.60;92.30;;;;;;5139541;27;20196;-62
2021/03/08 03:05:59;;;;;;;6.88;2.10;;;0.40;72.30;;;;;;5138604;27;20200;-61
2021/03/08 03:08:27;;;;;;;2.47;1.35;;;0.40;99.90;;;;;;5140033;27;20281;-61
2021/03/08 03:10:54;;;;;;;3.60;1.30;;;0.30;1.00;;;;;;5139181;27;20595;-61
2021/03/08 03:13:21;;;;;;;1.20;0.85;;;0.30;1.00;;;;;;5138263;27;20274;-62
2021/03/08 03:15:49;;;;;;;2.17;1.33;;;0.30;54.20;;;;;;5124903;27;20203;-62
2021/03/08 03:18:18;;;;;;;1.77;1.08;;;0.30;99.90;;;;;;5117379;28;20179;-61
2021/03/08 03:20:46;;;;;;;2.80;1.38;;;0.50;99.90;;;;;;5118188;28;20203;-62
2021/03/08 03:23:13;;;;;;;1.55;1.10;;;0.30;99.90;;;;;;5118332;28;20195;-62
2021/03/08 03:25:40;;;;;;;1.88;0.90;;;0.20;99.90;;;;;;5117880;28;20175;-61
2021/03/08 03:28:07;;;;;;;6.72;1.48;;;0.20;1.00;;;;;;5116490;28;20209;-62
2021/03/08 03:30:33;;;;;;;4.30;1.85;;;0.10;1.00;;;;;;5117475;28;20175;-62
2021/03/08 03:33:00;;;;;;;10.25;1.63;;;0.20;1.00;;;;;;5116547;27;20255;-61
2021/03/08 03:35:27;;;;;;;2.00;1.00;;;0.20;1.00;;;;;;5118759;28;20199;-61
2021/03/08 03:37:56;;;;;;;4.93;1.48;;;0.20;1.00;;;;;;5117834;28;20234;-62
2021/03/08 03:40:23;;;;;;;8.00;1.50;;;0.30;1.00;;;;;;5117473;28;20660;-62
2021/03/08 03:42:49;;;;;;;5.32;0.90;;;0.30;1.00;;;;;;5117570;28;20180;-61
2021/03/08 03:45:20;;;;;;;1.90;1.10;;;0.20;1.00;;;;;;5117803;28;20203;-62
2021/03/08 03:47:46;;;;;;;3.08;1.38;;;0.30;1.00;;;;;;5116807;28;20229;-62
2021/03/08 03:50:18;;;;;;;4.32;1.10;;;0.30;99.90;;;;;;5117576;28;20197;-63
2021/03/08 03:52:43;;;;;;;1.60;0.82;;;0.20;99.90;;;;;;5116826;28;20193;-63
2021/03/08 03:55:11;;;;;;;1.20;1.10;;;0.30;99.90;;;;;;5116584;28;20265;-62
2021/03/08 03:57:57;;;;;;;5.05;1.40;;;0.30;1.00;;;;;;5115603;28;20237;-63
2021/03/08 04:00:26;;;;;;;2.13;0.98;;;0.30;1.00;;;;;;5116708;28;20179;-62
2021/03/08 04:03:08;;;;;;;1.13;1.02;;;0.30;1.00;;;;;;5116453;28;20213;-62
2021/03/08 04:05:34;;;;;;;1.95;1.13;;;0.20;99.90;;;;;;5117263;28;20195;-62
2021/03/08 04:08:03;;;;;;;4.45;0.80;;;0.20;1.00;;;;;;5116965;28;20294;-63
2021/03/08 04:10:30;;;;;;;2.55;1.30;;;0.10;1.00;;;;;;5118189;28;20193;-64
2021/03/08 04:13:10;;;;;;;2.85;1.25;;;0.10;1.00;;;;;;5117498;28;20256;-63
2021/03/08 04:15:37;;;;;;;2.58;1.13;;;0.20;1.00;;;;;;5116964;28;20240;-64
2021/03/08 04:18:05;;;;;;;4.07;1.38;;;0.10;1.00;;;;;;5116387;28;20175;-63
2021/03/08 04:20:32;;;;;;;4.88;2.10;;;0.10;1.00;;;;;;5116715;28;20183;-64
2021/03/08 04:23:03;;;;;;;7.63;1.33;;;0.20;1.00;;;;;;5116564;28;20653;-63
2021/03/08 04:25:30;;;;;;;3.58;1.02;;;0.20;1.00;;;;;;5116168;28;20214;-64
2021/03/08 04:27:58;;;;;;;2.63;0.98;;;0.20;1.00;;;;;;5115953;28;20195;-63
2021/03/08 04:30:24;;;;;;;4.78;1.50;;;0.10;1.00;;;;;;5115976;28;20183;-64
2021/03/08 04:32:52;;;;;;;3.00;1.10;;;0.10;1.00;;;;;;5116694;28;20204;-64
2021/03/08 04:35:20;;;;;;;8.32;1.95;;;0.20;25.60;;;;;;5116340;28;20179;-64
2021/03/08 04:37:47;;;;;;;4.60;1.45;;;0.60;17.50;;;;;;5115833;28;20195;-64
2021/03/08 04:40:15;;;;;;;2.67;1.25;;;0.40;99.90;;;;;;5116221;28;20236;-64
2021/03/08 04:42:42;;;;;;;1.70;1.30;;;0.30;99.90;;;;;;5115839;28;20179;-63
2021/03/08 04:45:10;;;;;;;4.45;1.25;;;0.30;99.90;;;;;;5116041;28;20241;-63
2021/03/08 04:47:37;;;;;;;3.67;1.27;;;0.50;99.90;;;;;;5116243;28;20207;-64
2021/03/08 04:50:05;;;;;;;4.68;1.17;;;0.10;99.90;;;;;;5115642;28;20171;-64
2021/03/08 04:52:31;;;;;;;3.30;1.30;;;-0.10;1.00;;;;;;5116277;28;20179;-64
2021/03/08 04:54:57;;;;;;;1.92;1.70;;;-0.10;14.60;;;;;;5115718;28;20175;-63
2021/03/08 04:57:24;;;;;;;1.33;1.23;;;0.10;99.90;;;;;;5115775;28;20219;-67
2021/03/08 04:59:50;;;;;;;3.55;1.85;;;0.00;99.90;;;;;;5119084;28;20432;-65
2021/03/08 05:02:19;;;;;;;3.78;1.55;;;-0.10;99.90;;;;;;5120053;28;20183;-63
2021/03/08 05:04:49;;;;;;;3.63;1.55;;;0.00;99.90;;;;;;5120004;28;20191;-63
2021/03/08 05:07:25;;;;;;;4.22;1.63;;;0.30;1.00;;;;;;5119752;28;20280;-63
2021/03/08 05:09:53;;;;;;;2.58;1.10;;;0.10;99.90;;;;;;5120220;28;20182;-63
2021/03/08 05:12:20;;;;;;;4.68;1.52;;;-0.20;99.90;;;;;;5120437;27;20232;-63
2021/03/08 05:14:47;;;;;;;4.47;1.65;;;-0.20;1.00;;;;;;5120007;28;20597;-63
2021/03/08 05:17:16;;;;;;;4.60;2.35;;;-0.20;1.00;;;;;;5121153;28;20666;-62
2021/03/08 05:19:45;;;;;;;2.38;1.30;;;-0.30;1.00;;;;;;5121856;28;20189;-61
2021/03/08 05:22:13;;;;;;;2.15;1.33;;;-0.30;1.00;;;;;;5121685;28;20262;-64
2021/03/08 05:24:40;;;;;;;2.67;1.25;;;-0.30;1.00;;;;;;5121018;28;20191;-64
2021/03/08 05:27:08;;;;;;;4.82;1.55;;;-0.30;99.90;;;;;;5120244;28;20584;-63
2021/03/08 05:29:44;;;;;;;4.03;2.03;;;-0.30;99.90;;;;;;5120486;28;20191;-63
2021/03/08 05:32:13;;;;;;;1.65;1.00;;;-0.30;99.90;;;;;;5120117;28;20242;-63
2021/03/08 05:34:44;;;;;;;3.50;2.17;;;-0.30;1.00;;;;;;5120756;27;20185;-63
2021/03/08 05:37:13;;;;;;;3.53;1.20;;;-0.30;99.90;;;;;;5136555;27;20207;-63
2021/03/08 05:39:41;;;;;;;3.53;1.63;;;-0.30;99.90;;;;;;5137521;27;20210;-62
2021/03/08 05:42:10;;;;;;;3.72;1.60;;;-0.10;99.90;;;;;;5135497;27;20186;-63
2021/03/08 05:45:01;;;;;;;2.10;1.90;;;-0.10;99.90;;;;;;5139984;27;20198;-63
2021/03/08 05:47:53;;;;;;;5.90;2.50;;;-0.10;99.90;;;;;;5137930;27;20225;-63
2021/03/08 05:50:53;;;;;;;3.03;1.35;;;-0.10;58.80;;;;;;5139680;27;20174;-63
2021/03/08 05:53:45;;;;;;;3.55;1.40;;;0.00;99.90;;;;;;5139885;27;20177;-64
2021/03/08 05:56:41;;;;;;;6.97;1.73;;;0.10;99.90;;;;;;5139787;27;20162;-67
2021/03/08 05:59:41;;;;;;;5.18;1.95;;;0.40;99.90;;;;;;5139745;27;20607;-62
2021/03/08 06:02:29;;;;;;;6.65;1.85;;;0.40;1.00;;;;;;5139101;27;20236;-64
2021/03/08 06:05:28;;;;;;;4.00;1.67;;;0.50;1.00;;;;;;5139307;27;20721;-64
2021/03/08 06:08:24;;;;;;;3.92;1.85;;;0.70;99.90;;;;;;5138904;27;20206;-63
2021/03/08 06:11:11;;;;;;;3.25;1.80;;;0.70;99.90;;;;;;5138450;27;20305;-63
2021/03/08 06:13:43;;;;;;;3.80;1.80;;;0.80;99.90;;;;;;5139623;27;20680;-64
2021/03/08 06:16:14;;;;;;;2.08;1.60;;;0.90;99.90;;;;;;5138905;27;20615;-63
2021/03/08 06:18:45;;;;;;;4.07;2.22;;;1.20;99.90;;;;;;5139628;27;20683;-64
2021/03/08 06:21:13;;;;;;;2.80;1.85;;;1.50;99.90;;;;;;5138850;27;20182;-64
2021/03/08 06:23:41;;;;;;;5.03;2.00;;;2.20;1.00;;;;;;5138788;27;20265;-63
2021/03/08 06:26:08;;;;;;;4.80;1.73;;;3.10;1.00;;;;;;5138217;27;20252;-62
2021/03/08 06:28:35;;;;;;;7.97;2.38;;;3.90;99.90;;;;;;5137013;27;20198;-64
2021/03/08 06:31:01;;;;;;;6.70;2.65;;;4.40;99.90;;;;;;5137331;27;20299;-63
2021/03/08 06:33:26;;;;;;;6.60;3.20;;;4.60;1.00;;;;;;5137284;27;20515;-64
2021/03/08 06:35:53;;;;;;;4.10;2.73;;;4.60;1.00;;;;;;5136989;27;20175;-64
2021/03/08 06:38:20;;;;;;;4.18;2.67;;;4.50;1.00;;;;;;5137529;27;20193;-63
2021/03/08 06:40:46;;;;;;;4.65;2.13;;;3.90;1.00;;;;;;5138030;27;20178;-63
2021/03/08 06:43:11;;;;;;;3.42;2.15;;;3.50;1.00;;;;;;5137224;27;20174;-63
2021/03/08 06:45:37;;;;;;;2.07;1.87;;;3.30;1.00;;;;;;5138209;27;20562;-65
2021/03/08 06:48:03;;;;;;;6.83;2.30;;;3.00;99.90;;;;;;5138202;27;20253;-63
2021/03/08 06:50:29;;;;;;;2.73;1.90;;;2.90;1.00;;;;;;5138079;27;20208;-64
2021/03/08 06:52:54;;;;;;;2.70;2.10;;;3.10;1.00;;;;;;5137519;27;20526;-63
2021/03/08 06:55:21;;;;;;;5.13;2.10;;;3.20;1.00;;;;;;5137579;27;20175;-64
2021/03/08 06:57:47;;;;;;;5.03;2.33;;;2.90;99.90;;;;;;5138024;27;20194;-62
2021/03/08 07:00:14;;;;;;;5.28;2.53;;;2.50;1.00;;;;;;5137240;27;20258;-64
2021/03/08 07:02:40;;;;;;;4.05;2.30;;;2.20;1.00;;;;;;5138142;27;20183;-63
2021/03/08 07:05:11;;;;;;;3.78;2.35;;;2.00;99.90;;;;;;5137658;27;20198;-65
2021/03/08 07:07:50;;;;;;;4.53;2.58;;;1.90;1.00;;;;;;5137639;27;20207;-64
2021/03/08 07:10:16;;;;;;;7.63;2.60;;;1.80;1.00;;;;;;5137897;27;20178;-63
2021/03/08 07:12:51;;;;;;;5.85;2.10;;;1.40;99.90;;;;;;5137028;27;20178;-63
2021/03/08 07:15:17;;;;;;;6.00;3.45;;;1.10;1.00;;;;;;5136906;27;20178;-63
2021/03/08 07:17:43;;;;;;;5.28;3.53;;;1.10;16.30;;;;;;5130799;27;20219;-63
2021/03/08 07:20:13;;;;;;;4.18;2.58;;;1.00;1.00;;;;;;5135785;27;20197;-64
2021/03/08 07:22:40;;;;;;;4.75;2.50;;;1.20;99.90;;;;;;5130279;27;20229;-64
2021/03/08 07:25:14;;;;;;;5.80;3.58;;;1.10;1.00;;;;;;5126895;27;20687;-64
2021/03/08 07:28:00;;;;;;;8.48;3.20;;;0.90;14.10;;;;;;5136869;27;20293;-64
2021/03/08 07:30:30;;;;;;;9.50;2.45;;;0.90;99.90;;;;;;5122786;27;20194;-63
2021/03/08 07:33:03;;;;;;;8.50;2.85;;;0.90;99.90;;;;;;5135725;27;20603;-63
2021/03/08 07:35:36;;;;;;;6.68;2.05;;;1.10;99.90;;;;;;5136711;27;20194;-64
2021/03/08 07:38:03;;;;;;;7.13;2.25;;;1.30;8.90;;;;;;5127779;27;20179;-65
2021/03/08 07:40:29;;;;;;;6.65;2.22;;;1.20;1.00;;;;;;5137962;27;20171;-64
2021/03/08 07:42:55;;;;;;;7.05;2.55;;;1.20;1.00;;;;;;5133631;27;20183;-63
2021/03/08 07:45:36;;;;;;;8.47;3.40;;;1.30;1.00;;;;;;5131712;27;20493;-64
2021/03/08 07:48:09;;;;;;;14.30;5.88;;;1.50;99.90;;;;;;5133411;27;20870;-64
2021/03/08 07:50:34;;;;;;;6.95;2.95;;;1.90;1.00;;;;;;5133342;27;20190;-64
2021/03/08 07:53:00;;;;;;;9.90;3.30;;;2.30;71.40;;;;;;5136418;27;20178;-65
2021/03/08 07:55:36;;;;;;;5.90;3.40;;;2.40;99.90;;;;;;5123808;27;20510;-64
2021/03/08 07:58:06;;;;;;;10.93;5.28;;;2.70;1.00;;;;;;5131881;27;20178;-64
2021/03/08 08:00:32;;;;;;;10.10;2.42;;;2.60;27.00;;;;;;5132575;27;20183;-63
2021/03/08 08:02:58;;;;;;;5.77;1.53;;;2.60;43.90;;;;;;5129328;27;20193;-65
2021/03/08 08:05:24;;;;;;;4.72;2.35;;;2.40;1.00;;;;;;5129672;27;20459;-64
2021/03/08 08:07:51;;;;;;;5.07;2.70;;;2.60;1.00;;;;;;5127230;27;20657;-65
2021/03/08 08:10:19;;;;;;;2.42;1.80;;;2.70;1.00;;;;;;5124881;27;20184;-64
2021/03/08 08:12:48;;;;;;;4.38;1.80;;;2.20;1.00;;;;;;5132878;27;20174;-64
2021/03/08 08:15:23;;;;;;;4.90;1.50;;;2.30;99.90;;;;;;5133157;27;20166;-66
2021/03/08 08:17:51;;;;;;;4.93;2.30;;;2.80;99.90;;;;;;5128719;27;20205;-65
2021/03/08 08:20:18;;;;;;;3.80;1.92;;;3.10;1.00;;;;;;5129617;27;20190;-65
2021/03/08 08:22:53;;;;;;;3.47;1.40;;;3.20;1.00;;;;;;5133042;27;20622;-65
2021/03/08 08:25:20;;;;;;;14.00;5.57;;;3.30;99.90;;;;;;5127016;27;20220;-65
2021/03/08 08:27:48;;;;;;;4.70;2.03;;;3.40;99.90;;;;;;5132976;27;20212;-68
2021/03/08 08:30:15;;;;;;;3.20;1.65;;;3.40;99.90;;;;;;5133624;27;20229;-71
2021/03/08 08:32:58;;;;;;;2.17;1.30;;;3.30;99.90;;;;;;5125785;27;20175;-70
2021/03/08 08:35:27;;;;;;;5.22;2.05;;;3.40;99.90;;;;;;5136519;27;20225;-71
2021/03/08 08:38:07;;;;;;;3.88;2.35;;;3.50;99.90;;;;;;5118028;27;20175;-70
2021/03/08 08:40:34;;;;;;;3.05;2.10;;;3.50;99.90;;;;;;5121492;28;20182;-71
2021/03/08 08:43:15;;;;;;;5.32;1.33;;;3.60;99.90;;;;;;5131213;27;20210;-70
2021/03/08 08:45:46;;;;;;;2.33;1.13;;;3.50;1.00;;;;;;5127314;28;20178;-69
2021/03/08 08:48:12;;;;;;;15.10;5.65;;;3.40;17.40;;;;;;5127364;27;20298;-69
2021/03/08 08:50:52;;;;;;;2.30;1.07;;;3.50;99.90;;;;;;5131304;27;20236;-69
2021/03/08 08:53:39;;;;;;;8.32;2.80;;;3.60;29.70;;;;;;5132144;27;20174;-70
2021/03/08 08:56:05;;;;;;;5.13;2.25;;;3.80;1.00;;;;;;5136062;28;20181;-68
2021/03/08 08:58:43;;;;;;;3.17;1.58;;;3.80;1.00;;;;;;5134919;28;20189;-68
2021/03/08 09:01:34;;;;;;;4.38;1.70;;;3.60;1.00;;;;;;5135500;28;20553;-69
2021/03/08 09:04:05;;;;;;;1.70;1.10;;;3.70;1.00;;;;;;5134101;28;20189;-68
2021/03/08 09:06:53;;;;;;;6.38;1.45;;;3.80;1.00;;;;;;5134462;28;20190;-67
2021/03/08 09:09:21;;;;;;;6.35;2.13;;;3.90;1.00;;;;;;5126651;27;20238;-68
2021/03/08 09:12:00;;;;;;;1.80;0.75;;;4.00;1.00;;;;;;5133406;28;20612;-68
2021/03/08 09:14:41;;;;;;;1.60;0.88;;;4.10;1.00;;;;;;5132912;28;20503;-68
2021/03/08 09:17:08;;;;;;;3.25;1.92;;;3.90;1.00;;;;;;5134676;27;20190;-67
2021/03/08 09:19:34;;;;;;;3.55;1.38;;;4.00;1.00;;;;;;5134473;27;20742;-68
2021/03/08 09:22:21;;;;;;;5.10;1.30;;;4.10;1.00;;;;;;5127344;28;20178;-65
2021/03/08 09:25:00;;;;;;;5.78;1.85;;;4.10;1.00;;;;;;5126685;28;20483;-65
2021/03/08 09:27:25;;;;;;;1.85;1.02;;;4.10;1.00;;;;;;5134343;28;20206;-66
2021/03/08 09:29:52;;;;;;;3.13;1.27;;;4.20;1.00;;;;;;5134681;28;20254;-65
2021/03/08 09:32:19;;;;;;;7.95;2.28;;;4.20;1.00;;;;;;5135757;27;20573;-69
2021/03/08 09:34:45;;;;;;;4.40;2.08;;;4.30;1.00;;;;;;5118296;28;20190;-68
2021/03/08 09:37:11;;;;;;;33.47;15.52;;;4.50;1.00;;;;;;5134267;27;20174;-67
2021/03/08 09:39:51;;;;;;;10.15;2.25;;;4.60;1.00;;;;;;5134118;27;20637;-67
2021/03/08 09:42:17;;;;;;;1.25;0.93;;;4.80;1.00;;;;;;5134374;28;20206;-65
2021/03/08 09:44:44;;;;;;;4.40;1.27;;;4.60;99.90;;;;;;5133793;27;20190;-65
2021/03/08 09:47:10;;;;;;;2.85;1.25;;;4.50;99.90;;;;;;5137691;27;20211;-63
2021/03/08 09:49:57;;;;;;;4.32;1.10;;;4.50;99.90;;;;;;5138372;27;20171;-65
2021/03/08 09:52:43;;;;;;;1.65;1.30;;;4.80;99.90;;;;;;5132344;27;20199;-65
2021/03/08 09:55:14;;;;;;;1.95;1.63;;;4.90;99.90;;;;;;5132741;27;20175;-63
2021/03/08 09:57:41;;;;;;;3.63;1.13;;;5.20;99.90;;;;;;5120945;27;20215;-67
2021/03/08 10:00:08;;;;;;;1.95;1.20;;;5.00;99.90;;;;;;5133214;27;20187;-65
2021/03/08 10:02:34;;;;;;;2.45;1.10;;;5.10;98.80;;;;;;5137558;27;20189;-65
2021/03/08 10:05:00;;;;;;;3.67;1.07;;;5.20;99.90;;;;;;5137449;27;20514;-64
2021/03/08 10:07:26;;;;;;;2.60;1.00;;;5.10;36.80;;;;;;5130635;27;20210;-64
2021/03/08 10:10:15;;;;;;;10.32;4.25;;;4.90;1.00;;;;;;5137690;27;20596;-63
2021/03/08 10:12:43;;;;;;;1.70;1.10;;;5.10;65.10;;;;;;5130069;27;20187;-64
2021/03/08 10:15:10;;;;;;;5.18;2.10;;;5.10;99.90;;;;;;5132113;27;20668;-64
2021/03/08 10:18:00;;;;;;;4.55;1.65;;;5.40;99.90;;;;;;5133030;27;20190;-63
2021/03/08 10:20:32;;;;;;;2.20;1.10;;;5.50;18.50;;;;;;5137352;27;20187;-62
2021/03/08 10:22:58;;;;;;;1.98;1.20;;;5.40;1.00;;;;;;5127951;27;20187;-63
2021/03/08 10:25:30;;;;;;;4.37;1.80;;;5.40;1.00;;;;;;5129375;27;20692;-63
2021/03/08 10:28:01;;;;;;;2.90;1.50;;;5.40;1.00;;;;;;5135820;27;20559;-66
2021/03/08 10:30:29;;;;;;;3.97;1.65;;;5.80;1.00;;;;;;5135212;27;20179;-64
2021/03/08 10:33:03;;;;;;;5.45;2.90;;;5.90;1.00;;;;;;5133969;27;20234;-61
2021/03/08 10:35:31;;;;;;;6.13;2.03;;;6.10;1.00;;;;;;5134301;27;20179;-64
2021/03/08 10:37:59;;;;;;;1.95;1.33;;;5.90;1.00;;;;;;5129179;27;20471;-63
2021/03/08 10:40:25;;;;;;;34.03;15.45;;;5.90;1.00;;;;;;5130590;27;20233;-63
2021/03/08 10:42:51;;;;;;;6.73;1.40;;;5.90;1.00;;;;;;5131472;27;20206;-65
2021/03/08 10:45:18;;;;;;;4.68;0.70;;;5.40;1.00;;;;;;5131491;27;20451;-65
2021/03/08 10:47:43;;;;;;;1.60;1.30;;;5.40;1.00;;;;;;5134385;27;20646;-66
2021/03/08 10:50:09;;;;;;;4.20;0.90;;;5.40;1.00;;;;;;5133486;27;20183;-66
2021/03/08 10:52:35;;;;;;;2.20;0.70;;;5.60;1.00;;;;;;5129907;27;20189;-64
2021/03/08 10:55:01;;;;;;;1.47;0.97;;;5.60;1.00;;;;;;5134869;27;20186;-64
2021/03/08 10:57:27;;;;;;;2.10;1.10;;;5.70;1.00;;;;;;5133685;27;20623;-64
2021/03/08 10:59:55;;;;;;;3.05;1.10;;;5.80;1.00;;;;;;5131578;27;20196;-64
2021/03/08 11:02:23;;;;;;;2.45;1.13;;;6.00;1.00;;;;;;5132083;27;20203;-66
2021/03/08 11:04:51;;;;;;;3.40;1.10;;;6.10;1.00;;;;;;5133181;27;20650;-66
2021/03/08 11:07:30;;;;;;;1.60;1.05;;;6.00;1.00;;;;;;5131112;27;20239;-64
2021/03/08 11:09:56;;;;;;;1.30;0.80;;;5.70;1.00;;;;;;5132920;27;20180;-64
2021/03/08 11:12:23;;;;;;;1.13;0.87;;;5.50;1.00;;;;;;5136726;27;20181;-64
2021/03/08 11:14:55;;;;;;;1.75;1.02;;;5.70;1.00;;;;;;5136380;27;20489;-63
2021/03/08 11:17:35;;;;;;;1.13;0.50;;;5.70;1.00;;;;;;5136118;27;20195;-65
2021/03/08 11:20:10;;;;;;;1.35;0.75;;;5.80;1.00;;;;;;5128315;27;20204;-64
2021/03/08 11:22:55;;;;;;;1.92;0.85;;;6.00;1.00;;;;;;5134614;27;20609;-64
2021/03/08 11:25:50;;;;;;;1.85;0.93;;;6.20;1.00;;;;;;5135625;27;20195;-65
2021/03/08 11:28:18;;;;;;;1.83;0.85;;;6.40;1.00;;;;;;5122577;27;20298;-65
2021/03/08 11:30:46;;;;;;;1.25;0.90;;;6.30;1.00;;;;;;5125166;27;20210;-65
2021/03/08 11:33:12;;;;;;;1.73;0.73;;;6.20;1.00;;;;;;5132706;27;20175;-65
2021/03/08 11:35:40;;;;;;;1.30;0.60;;;6.10;1.00;;;;;;5136052;27;20239;-65
2021/03/08 11:38:07;;;;;;;1.88;0.60;;;6.10;1.00;;;;;;5136461;27;20429;-65
2021/03/08 11:40:35;;;;;;;2.38;1.88;;;6.20;1.00;;;;;;5122730;27;20377;-65
2021/03/08 11:43:01;;;;;;;2.78;0.75;;;6.40;1.00;;;;;;5132982;27;20182;-68
2021/03/08 11:45:29;;;;;;;2.13;0.85;;;6.70;1.00;;;;;;5134595;27;20258;-67
2021/03/08 11:47:56;;;;;;;0.77;0.60;;;6.50;1.00;;;;;;5121343;27;20209;-65
2021/03/08 11:50:23;;;;;;;1.70;0.60;;;6.30;1.00;;;;;;5127399;27;20216;-63
2021/03/08 11:52:49;;;;;;;1.50;0.80;;;6.30;1.00;;;;;;5134232;27;20179;-66
2021/03/08 11:55:16;;;;;;;1.40;0.50;;;6.30;1.00;;;;;;5135122;27;20172;-68
2021/03/08 11:57:46;;;;;;;2.45;1.63;;;6.20;1.00;;;;;;5135083;27;20371;-67
2021/03/08 12:00:14;;;;;;;1.02;0.50;;;6.30;1.00;;;;;;5134654;27;20215;-64
2021/03/08 12:02:39;;;;;;;0.82;0.60;;;6.40;1.00;;;;;;5134465;27;20524;-67
2021/03/08 12:05:07;;;;;;;1.00;0.60;;;6.10;1.00;;;;;;5135189;27;20196;-68
2021/03/08 12:07:34;;;;;;;2.50;0.60;;;6.30;1.00;;;;;;5133559;27;20480;-67
2021/03/08 12:10:00;;;;;;;1.88;0.70;;;6.40;1.00;;;;;;5134574;27;20655;-70
2021/03/08 12:12:26;;;;;;;1.30;0.60;;;6.30;1.00;;;;;;5135300;27;20183;-71
2021/03/08 12:14:52;;;;;;;0.90;0.50;;;6.20;1.00;;;;;;5134519;27;20214;-72
2021/03/08 12:17:18;;;;;;;0.93;0.60;;;6.10;1.00;;;;;;5127727;27;20603;-70
2021/03/08 12:19:44;;;;;;;1.88;0.90;;;6.10;1.00;;;;;;5133391;27;20631;-70
2021/03/08 12:22:09;;;;;;;1.97;1.00;;;6.00;1.00;;;;;;5124167;27;20194;-70
2021/03/08 12:24:35;;;;;;;1.40;0.80;;;6.30;1.00;;;;;;5135168;27;20184;-69
2021/03/08 12:27:00;;;;;;;0.73;0.60;;;6.20;1.00;;;;;;5135705;27;20199;-66
2021/03/08 12:29:26;;;;;;;0.60;0.60;;;6.20;1.00;;;;;;5134581;27;20240;-66
2021/03/08 12:31:52;;;;;;;2.63;1.07;;;6.40;1.00;;;;;;5135498;27;20184;-68
2021/03/08 12:34:18;;;;;;;1.57;0.60;;;6.50;1.00;;;;;;5135808;28;20265;-68
2021/03/08 12:36:43;;;;;;;0.93;0.60;;;6.50;1.00;;;;;;5135714;27;20258;-71
2021/03/08 12:39:09;;;;;;;3.00;1.80;;;6.60;1.00;;;;;;5134506;28;20177;-68
2021/03/08 12:41:35;;;;;;;1.77;1.00;;;6.70;1.00;;;;;;5129471;28;20255;-70
2021/03/08 12:44:00;;;;;;;1.90;1.03;;;6.60;1.00;;;;;;5128517;28;20573;-68
2021/03/08 12:46:26;;;;;;;0.90;0.73;;;6.60;1.00;;;;;;5133953;27;20617;-67
2021/03/08 12:48:52;;;;;;;1.97;0.87;;;6.90;1.00;;;;;;5131970;27;20295;-68
2021/03/08 12:51:19;;;;;;;1.10;0.90;;;6.80;1.00;;;;;;5133280;27;20196;-67
2021/03/08 12:53:46;;;;;;;1.00;0.70;;;6.70;1.00;;;;;;5134209;27;20184;-64
2021/03/08 12:56:11;;;;;;;2.00;1.00;;;6.70;1.00;;;;;;5134119;27;20216;-65
2021/03/08 12:58:37;;;;;;;3.30;1.00;;;6.60;1.00;;;;;;5134943;28;20185;-64
2021/03/08 13:01:03;;;;;;;3.17;1.37;;;6.80;1.00;;;;;;5135854;28;20225;-66
2021/03/08 13:03:29;;;;;;;2.75;0.77;;;6.70;1.00;;;;;;5135267;27;20274;-68
2021/03/08 13:05:54;;;;;;;1.53;0.97;;;6.80;1.00;;;;;;5125404;28;20228;-69
2021/03/08 13:08:20;;;;;;;3.20;0.80;;;7.00;1.00;;;;;;5130911;28;20214;-69
2021/03/08 13:10:47;;;;;;;3.37;0.80;;;7.10;1.00;;;;;;5135835;28;20571;-67
2021/03/08 13:13:14;;;;;;;1.80;0.98;;;6.90;1.00;;;;;;5135439;27;20184;-66
2021/03/08 13:15:39;;;;;;;1.23;0.90;;;6.70;1.00;;;;;;5135292;28;20177;-65
2021/03/08 13:18:05;;;;;;;0.70;0.50;;;6.80;1.00;;;;;;5134033;28;20189;-65